Time;durP1;ratioP1;P1;durP2;ratioP2;P2;SDS_P1;SDS_P2;PMS_P1;PMS_P2;Temp;Humidity;BMP_temperature;BMP_pressure;BME280_temperature;BME280_humidity;BME280_pressure;Samples;Min_cycle;Max_cycle;Signal;HPM_P1;HPM_P2
2022/12/27 00:02:21;;;;;;;1.50;1.10;;;;;;;5.40;100.00;96107.09;4951904;28;20509;-76
2022/12/27 00:04:47;;;;;;;3.25;1.15;;;;;;;5.39;100.00;96103.69;4950155;28;20133;-75
2022/12/27 00:07:13;;;;;;;3.25;1.52;;;;;;;5.41;100.00;96103.47;4938293;28;20048;-76
2022/12/27 00:09:38;;;;;;;1.58;1.05;;;;;;;5.36;100.00;96112.75;4948245;29;20043;-76
2022/12/27 00:12:04;;;;;;;2.80;0.88;;;;;;;5.41;100.00;96098.25;4953480;28;20058;-76
2022/12/27 00:14:30;;;;;;;2.65;1.27;;;;;;;5.25;100.00;96110.91;4945976;28;20040;-76
2022/12/27 00:16:56;;;;;;;1.63;1.13;;;;;;;5.20;100.00;96087.25;4951624;28;20046;-75
2022/12/27 00:19:21;;;;;;;1.85;1.30;;;;;;;5.21;100.00;96104.53;4950438;28;20506;-76
2022/12/27 00:21:47;;;;;;;8.90;1.60;;;;;;;5.19;100.00;96111.78;4950366;28;20046;-76
2022/12/27 00:24:12;;;;;;;1.58;1.13;;;;;;;5.23;100.00;96118.16;4950193;28;20070;-76
2022/12/27 00:26:39;;;;;;;2.17;1.48;;;;;;;5.18;100.00;96120.63;4951529;28;20066;-76
2022/12/27 00:29:05;;;;;;;1.92;1.20;;;;;;;5.15;100.00;96115.84;4943384;28;20047;-76
2022/12/27 00:31:32;;;;;;;1.75;1.30;;;;;;;5.15;100.00;96131.50;4951633;28;20386;-76
2022/12/27 00:34:00;;;;;;;1.88;1.40;;;;;;;5.14;100.00;96129.91;4949986;28;20039;-76
2022/12/27 00:36:27;;;;;;;2.38;1.20;;;;;;;5.15;100.00;96141.94;4951125;28;20043;-75
2022/12/27 00:38:55;;;;;;;5.28;1.48;;;;;;;5.10;100.00;96149.63;4950056;29;20043;-76
2022/12/27 00:41:21;;;;;;;2.10;1.15;;;;;;;5.13;100.00;96152.59;4951638;29;20477;-75
2022/12/27 00:43:47;;;;;;;4.30;1.42;;;;;;;5.12;100.00;96152.81;4950949;28;20046;-75
2022/12/27 00:46:13;;;;;;;4.32;1.80;;;;;;;5.12;100.00;96152.81;4943480;28;20044;-76
2022/12/27 00:48:38;;;;;;;2.00;1.20;;;;;;;5.02;100.00;96154.09;4940607;28;20040;-76
2022/12/27 00:51:14;;;;;;;2.22;1.33;;;;;;;5.09;100.00;96158.47;4950977;29;20054;-76
2022/12/27 00:53:40;;;;;;;1.70;1.30;;;;;;;5.19;100.00;96169.19;4949631;28;20051;-76
2022/12/27 00:56:15;;;;;;;3.70;1.40;;;;;;;5.12;100.00;96169.25;4946075;28;20043;-75
2022/12/27 00:58:41;;;;;;;3.63;1.60;;;;;;;5.11;100.00;96169.47;4945633;29;20043;-76
2022/12/27 01:01:12;;;;;;;3.65;1.25;;;;;;;5.20;100.00;96175.97;4955098;28;20765;-76
2022/12/27 01:03:38;;;;;;;3.90;1.60;;;;;;;5.18;100.00;96162.38;4953507;28;20043;-76
2022/12/27 01:06:10;;;;;;;3.70;1.60;;;;;;;5.15;100.00;96181.06;4945359;28;20614;-76
2022/12/27 01:08:36;;;;;;;7.95;1.90;;;;;;;5.13;100.00;96193.53;4946548;29;20524;-76
2022/12/27 01:11:03;;;;;;;2.97;1.65;;;;;;;5.11;100.00;96190.34;4955460;28;20047;-76
2022/12/27 01:13:29;;;;;;;2.58;1.73;;;;;;;5.03;100.00;96202.66;4955285;28;20051;-76
2022/12/27 01:15:54;;;;;;;4.68;1.80;;;;;;;5.00;100.00;96200.50;4947392;29;20057;-76
2022/12/27 01:18:20;;;;;;;2.42;1.42;;;;;;;4.82;100.00;96201.25;4951922;28;20109;-76
2022/12/27 01:20:46;;;;;;;6.32;2.35;;;;;;;4.88;100.00;96210.03;4953208;28;20070;-76
2022/12/27 01:23:12;;;;;;;8.05;1.75;;;;;;;4.74;100.00;96219.00;4953160;28;20050;-76
2022/12/27 01:25:37;;;;;;;5.22;1.83;;;;;;;4.62;100.00;96219.69;4957837;28;20043;-76
2022/12/27 01:28:03;;;;;;;6.20;1.90;;;;;;;4.55;100.00;96239.81;4942365;28;20127;-76
2022/12/27 01:30:29;;;;;;;6.78;1.60;;;;;;;4.49;100.00;96251.09;4954166;28;20425;-76
2022/12/27 01:32:54;;;;;;;4.50;1.80;;;;;;;4.44;100.00;96245.69;4952366;28;20043;-76
2022/12/27 01:35:20;;;;;;;7.47;1.90;;;;;;;4.40;100.00;96239.34;4952769;28;20043;-75
2022/12/27 01:37:46;;;;;;;3.00;1.60;;;;;;;4.42;100.00;96253.72;4948733;28;20049;-75
2022/12/27 01:40:11;;;;;;;4.63;1.60;;;;;;;4.38;100.00;96256.97;4949554;29;20418;-76
2022/12/27 01:42:52;;;;;;;7.13;1.77;;;;;;;4.40;100.00;96249.75;4952644;29;20477;-76
2022/12/27 01:45:26;;;;;;;4.88;1.63;;;;;;;4.44;100.00;96256.13;4953694;29;20054;-76
2022/12/27 01:48:12;;;;;;;;;;;;;;;4.37;100.00;96271.00;4935161;28;20048;-75
2022/12/27 01:50:40;;;;;;;;;;;;;;;4.20;100.00;96261.09;4944094;29;19923;-76
2022/12/27 01:53:12;;;;;;;4.88;1.77;;;;;;;4.18;100.00;96273.56;4952328;29;19922;-76
2022/12/27 01:55:50;;;;;;;9.98;1.90;;;;;;;4.09;100.00;96269.59;4958452;28;20122;-76
2022/12/27 01:58:37;;;;;;;5.95;1.73;;;;;;;4.02;100.00;96268.81;4946932;28;20043;-76
2022/12/27 02:01:05;;;;;;;4.57;1.80;;;;;;;4.07;100.00;96271.63;4947805;29;20050;-76
2022/12/27 02:03:40;;;;;;;7.35;2.00;;;;;;;4.03;100.00;96270.44;4952365;28;20043;-76
2022/12/27 02:06:08;;;;;;;2.47;1.60;;;;;;;3.96;100.00;96266.03;4950399;28;20082;-76
2022/12/27 02:09:07;;;;;;;2.25;1.52;;;;;;;3.96;100.00;96266.03;4952656;28;20043;-76
2022/12/27 02:11:50;;;;;;;7.38;2.05;;;;;;;3.86;100.00;96273.50;4953598;28;20050;-76
2022/12/27 02:14:46;;;;;;;7.35;2.33;;;;;;;3.93;100.00;96271.66;4951899;28;20043;-76
2022/12/27 02:17:25;;;;;;;4.40;1.60;;;;;;;3.88;100.00;96276.72;4951481;28;20062;-76
2022/12/27 02:20:14;;;;;;;4.25;1.85;;;;;;;3.84;100.00;96278.13;4946632;28;20047;-76
2022/12/27 02:26:23;;;;;;;5.78;2.05;;;;;;;3.78;100.00;96281.56;4957051;28;20046;-76
2022/12/27 02:29:26;;;;;;;3.72;1.77;;;;;;;3.80;100.00;96282.16;4933973;29;20134;-75
2022/12/27 02:32:27;;;;;;;3.60;1.88;;;;;;;3.87;100.00;96288.13;4945644;29;20090;-75
2022/12/27 02:35:37;;;;;;;3.42;1.75;;;;;;;3.75;100.00;96287.16;4939846;28;20420;-76
2022/12/27 02:38:09;;;;;;;8.13;1.98;;;;;;;3.80;100.00;96287.34;4941494;29;20067;-75
2022/12/27 02:53:03;;;;;;;5.97;2.00;;;;;;;3.89;100.00;96317.34;4945830;29;20040;-75
2022/12/27 02:55:35;;;;;;;3.13;1.70;;;;;;;3.89;100.00;96322.56;4947822;28;20058;-75
2022/12/27 02:58:14;;;;;;;4.60;1.85;;;;;;;3.97;100.00;96322.34;4942987;28;20510;-76
2022/12/27 03:03:39;;;;;;;4.07;2.00;;;;;;;3.92;100.00;96331.78;4952558;28;20461;-76
2022/12/27 03:06:39;;;;;;;3.53;1.88;;;;;;;3.97;100.00;96337.97;4950075;28;20048;-75
2022/12/27 03:18:01;;;;;;;2.90;1.73;;;;;;;3.63;100.00;96373.72;4951359;29;20039;-75
2022/12/27 03:26:17;;;;;;;3.17;1.65;;;;;;;3.62;100.00;96374.72;4933436;29;20056;-75
2022/12/27 03:34:34;;;;;;;3.70;1.70;;;;;;;3.51;100.00;96393.56;4952314;29;20047;-75
2022/12/27 03:40:28;;;;;;;4.70;1.38;;;;;;;3.38;100.00;96414.41;4943394;28;20043;-75
2022/12/27 03:43:10;;;;;;;4.97;2.00;;;;;;;3.40;100.00;96423.59;4940718;28;20036;-75
2022/12/27 03:48:47;;;;;;;5.68;1.65;;;;;;;3.22;100.00;96426.81;4944918;28;20447;-75
2022/12/27 03:51:14;;;;;;;3.55;1.60;;;;;;;3.31;100.00;96430.00;4938420;29;20044;-75
2022/12/27 03:53:43;;;;;;;2.42;1.50;;;;;;;3.18;100.00;96441.19;4954721;28;20046;-75
2022/12/27 03:56:10;;;;;;;2.85;1.50;;;;;;;3.21;100.00;96447.81;4950342;28;20102;-75
2022/12/27 03:58:35;;;;;;;3.42;1.50;;;;;;;3.05;100.00;96446.41;4949694;28;20043;-75
2022/12/27 04:01:01;;;;;;;5.72;2.05;;;;;;;3.07;100.00;96460.00;4950755;28;20039;-75
2022/12/27 04:03:27;;;;;;;4.45;1.73;;;;;;;3.07;100.00;96470.41;4951736;28;20391;-75
2022/12/27 04:05:53;;;;;;;2.92;1.60;;;;;;;3.05;100.00;96467.22;4938202;28;20048;-75
2022/12/27 04:35:40;;;;;;;3.27;1.93;;;;;;;2.48;100.00;96511.59;4954615;28;20458;-75
2022/12/27 04:38:05;;;;;;;5.97;1.77;;;;;;;2.41;100.00;96518.56;4951574;28;20039;-75
2022/12/27 04:57:04;;;;;;;3.30;1.50;;;;;;;2.12;100.00;96530.81;4937864;29;20054;-75
2022/12/27 05:02:16;;;;;;;3.33;1.40;;;;;;;2.04;100.00;96529.16;4954372;29;20110;-75
2022/12/27 05:04:42;;;;;;;3.97;1.50;;;;;;;2.00;100.00;96538.31;4954864;28;20432;-75
2022/12/27 05:15:27;;;;;;;1.55;1.02;;;;;;;2.06;100.00;96560.13;4950545;28;20098;-75
2022/12/27 05:17:52;;;;;;;1.52;1.10;;;;;;;2.01;100.00;96572.88;4939380;28;20043;-75
2022/12/27 05:20:18;;;;;;;3.58;1.23;;;;;;;2.04;100.00;96570.72;4949994;29;20539;-75
2022/12/27 05:25:34;;;;;;;3.55;1.13;;;;;;;1.94;100.00;96574.59;4954232;29;20043;-75
2022/12/27 05:28:03;;;;;;;1.10;0.90;;;;;;;1.92;100.00;96574.00;4943089;28;20413;-75
2022/12/27 05:30:32;;;;;;;1.58;1.10;;;;;;;1.87;100.00;96574.56;4954281;28;20047;-75
2022/12/27 05:32:58;;;;;;;3.28;1.02;;;;;;;1.90;100.00;96585.38;4952291;29;20047;-75
2022/12/27 05:35:23;;;;;;;1.80;1.02;;;;;;;1.85;100.00;96590.34;4950706;28;20123;-75
2022/12/27 05:37:49;;;;;;;2.72;1.48;;;;;;;1.92;100.00;96602.56;4953661;28;20075;-75
2022/12/27 05:40:14;;;;;;;2.67;1.20;;;;;;;1.75;100.00;96592.44;4954208;28;20097;-75
2022/12/27 05:42:40;;;;;;;2.78;1.08;;;;;;;1.85;100.00;96611.09;4952926;28;20078;-75
2022/12/27 05:45:06;;;;;;;0.98;0.70;;;;;;;1.78;100.00;96618.03;4944906;28;20169;-75
2022/12/27 05:47:32;;;;;;;5.68;1.40;;;;;;;1.71;100.00;96601.56;4950592;29;20394;-75
2022/12/27 05:49:58;;;;;;;1.70;1.00;;;;;;;1.70;100.00;96607.78;4949525;28;20051;-75
2022/12/27 05:52:23;;;;;;;3.55;1.35;;;;;;;1.79;100.00;96611.81;4952938;28;20054;-75
2022/12/27 05:54:49;;;;;;;5.22;1.05;;;;;;;1.79;100.00;96603.25;4945949;29;20051;-76
2022/12/27 05:57:15;;;;;;;3.83;1.40;;;;;;;1.75;100.00;96605.41;4946023;28;20044;-75
2022/12/27 05:59:40;;;;;;;4.03;1.00;;;;;;;1.66;100.00;96615.09;4952507;29;20446;-76
2022/12/27 06:02:06;;;;;;;5.35;1.40;;;;;;;1.64;100.00;96621.47;4952553;28;20054;-75
2022/12/27 06:04:31;;;;;;;3.65;1.20;;;;;;;1.54;100.00;96614.81;4952769;29;20110;-76
2022/12/27 06:06:58;;;;;;;1.45;0.70;;;;;;;1.46;100.00;96614.91;4950788;28;20394;-76
2022/12/27 06:09:25;;;;;;;2.83;1.25;;;;;;;1.37;100.00;96605.66;4953919;28;20067;-75
2022/12/27 06:11:50;;;;;;;4.13;1.40;;;;;;;1.18;100.00;96607.06;4952336;28;20448;-76
2022/12/27 06:14:16;;;;;;;4.15;1.35;;;;;;;1.19;100.00;96606.03;4948344;28;20040;-76
2022/12/27 06:16:42;;;;;;;2.35;1.50;;;;;;;1.13;100.00;96599.78;4942992;29;20044;-76
2022/12/27 06:19:07;;;;;;;3.50;1.50;;;;;;;1.02;100.00;96608.03;4949157;28;20039;-76
2022/12/27 06:21:33;;;;;;;3.47;1.60;;;;;;;1.02;100.00;96605.44;4955161;28;20055;-76
2022/12/27 06:23:59;;;;;;;3.35;1.55;;;;;;;1.03;100.00;96609.66;4953434;28;20497;-76
2022/12/27 06:26:27;;;;;;;5.18;1.50;;;;;;;0.98;100.00;96606.81;4951772;29;20047;-76
2022/12/27 06:28:54;;;;;;;6.18;1.33;;;;;;;0.79;100.00;96614.16;4945219;28;20039;-75
2022/12/27 06:31:21;;;;;;;4.03;1.30;;;;;;;0.54;100.00;96605.06;4954088;28;20079;-76
2022/12/27 06:33:50;;;;;;;2.85;1.60;;;;;;;0.29;100.00;96607.91;4935926;28;20054;-75
2022/12/27 06:36:18;;;;;;;3.22;1.52;;;;;;;0.26;100.00;96610.81;4949346;28;20485;-76
2022/12/27 06:38:44;;;;;;;2.63;1.30;;;;;;;0.33;100.00;96612.56;4953030;28;20402;-75
2022/12/27 06:41:11;;;;;;;4.25;1.77;;;;;;;0.30;100.00;96614.69;4951900;28;20054;-75
2022/12/27 06:43:37;;;;;;;2.72;1.50;;;;;;;0.26;100.00;96603.88;4949785;28;20050;-76
2022/12/27 06:46:06;;;;;;;5.57;1.90;;;;;;;0.09;100.00;96605.81;4952045;28;20051;-76
2022/12/27 06:48:32;;;;;;;3.97;2.00;;;;;;;0.03;100.00;96608.28;4945837;28;20055;-75
2022/12/27 06:51:02;;;;;;;2.58;1.50;;;;;;;-0.11;100.00;96602.13;4972676;28;20129;-75
2022/12/27 06:53:28;;;;;;;2.72;1.48;;;;;;;-0.16;100.00;96617.34;4950966;29;20042;-76
2022/12/27 06:55:53;;;;;;;6.13;2.08;;;;;;;-0.30;100.00;96618.91;4951934;28;20437;-75
2022/12/27 06:58:19;;;;;;;4.15;1.70;;;;;;;-0.43;100.00;96619.47;4944487;28;20054;-76
2022/12/27 07:00:45;;;;;;;5.60;1.90;;;;;;;-0.53;100.00;96625.69;4933922;29;20044;-76
2022/12/27 07:03:10;;;;;;;6.65;1.90;;;;;;;-0.65;100.00;96629.63;4950880;28;20047;-76
2022/12/27 07:05:37;;;;;;;3.75;1.83;;;;;;;-0.60;100.00;96629.94;4952470;28;20532;-76
2022/12/27 07:08:02;;;;;;;4.43;1.70;;;;;;;-0.59;100.00;96628.97;4947749;28;20039;-76
2022/12/27 07:10:28;;;;;;;4.75;2.25;;;;;;;-0.70;100.00;96621.59;4952675;28;20062;-76
2022/12/27 07:12:55;;;;;;;2.97;1.75;;;;;;;-0.79;100.00;96625.19;4950650;28;20054;-76
2022/12/27 07:15:20;;;;;;;5.18;1.88;;;;;;;-0.73;100.00;96635.66;4952413;28;20044;-75
2022/12/27 07:17:46;;;;;;;4.22;1.77;;;;;;;-0.82;100.00;96647.03;4943974;28;20089;-75
2022/12/27 07:20:11;;;;;;;4.63;2.10;;;;;;;-0.88;100.00;96645.94;4948383;28;20046;-76
2022/12/27 07:22:37;;;;;;;6.93;2.13;;;;;;;-0.90;100.00;96634.94;4950911;28;20577;-75
2022/12/27 07:25:03;;;;;;;3.95;2.08;;;;;;;-0.99;100.00;96630.78;4952023;28;20101;-76
2022/12/27 07:27:32;;;;;;;4.65;2.25;;;;;;;-1.01;100.00;96637.91;4949457;28;20042;-76
2022/12/27 07:29:57;;;;;;;4.50;2.33;;;;;;;-0.96;100.00;96633.03;4952297;28;20035;-75
2022/12/27 07:32:23;;;;;;;8.48;2.92;;;;;;;-0.90;100.00;96640.09;4949312;28;20155;-75
2022/12/27 07:34:49;;;;;;;5.15;2.30;;;;;;;-0.95;100.00;96646.75;4942726;29;20061;-75
2022/12/27 07:37:16;;;;;;;7.22;3.20;;;;;;;-1.11;100.00;96639.88;4952358;28;20047;-76
2022/12/27 07:39:41;;;;;;;4.32;2.22;;;;;;;-1.02;100.00;96656.97;4949044;28;20040;-76
2022/12/27 07:42:07;;;;;;;9.98;2.55;;;;;;;-1.12;100.00;96653.75;4952147;28;20057;-76
2022/12/27 07:44:33;;;;;;;13.10;3.60;;;;;;;-1.06;100.00;96655.69;4950640;28;20044;-76
2022/12/27 07:46:58;;;;;;;7.10;3.10;;;;;;;-0.90;100.00;96658.19;4953464;28;20043;-75
2022/12/27 07:49:24;;;;;;;7.25;3.10;;;;;;;-0.70;100.00;96658.59;4945814;28;20046;-76
2022/12/27 07:51:50;;;;;;;7.32;2.55;;;;;;;-0.64;100.00;96654.53;4950693;28;20039;-75
2022/12/27 07:54:15;;;;;;;11.85;3.30;;;;;;;-0.65;100.00;96647.72;4951955;28;20048;-76
2022/12/27 07:56:41;;;;;;;7.80;3.05;;;;;;;-0.65;100.00;96652.91;4944080;28;20127;-75
2022/12/27 07:59:10;;;;;;;4.63;2.50;;;;;;;-0.72;100.00;96639.03;4952042;28;20043;-75
2022/12/27 08:04:20;;;;;;;7.57;2.88;;;;;;;-0.71;100.00;96648.41;4950414;28;20493;-76
2022/12/27 08:06:46;;;;;;;5.53;2.42;;;;;;;-0.58;100.00;96659.00;4949407;28;20100;-76
2022/12/27 08:09:15;;;;;;;9.25;2.78;;;;;;;-0.47;100.00;96655.25;4955903;28;20050;-76
2022/12/27 08:11:40;;;;;;;7.50;3.13;;;;;;;-0.47;100.00;96662.19;4954260;28;20047;-76
2022/12/27 08:14:06;;;;;;;9.25;3.40;;;;;;;-0.50;100.00;96655.59;4952433;28;20534;-76
2022/12/27 08:16:32;;;;;;;8.63;3.67;;;;;;;-0.45;100.00;96657.66;4956629;28;20516;-76
2022/12/27 08:18:57;;;;;;;8.90;3.60;;;;;;;-0.40;100.00;96660.53;4949478;28;20050;-76
2022/12/27 08:21:23;;;;;;;5.15;2.72;;;;;;;-0.33;100.00;96666.63;4947926;29;20517;-75
2022/12/27 08:23:48;;;;;;;8.23;2.80;;;;;;;-0.34;100.00;96659.84;4955630;28;20051;-76
2022/12/27 08:26:14;;;;;;;9.40;3.67;;;;;;;-0.23;100.00;96662.03;4948217;28;20067;-76
2022/12/27 08:28:40;;;;;;;7.15;3.25;;;;;;;-0.16;100.00;96661.34;4954774;29;20043;-76
2022/12/27 08:31:07;;;;;;;9.85;3.00;;;;;;;-0.02;100.00;96655.41;4957734;28;20413;-76
2022/12/27 08:33:34;;;;;;;7.47;2.90;;;;;;;-0.01;100.00;96657.03;4954404;28;20043;-76
2022/12/27 08:36:04;;;;;;;10.38;2.70;;;;;;;0.04;100.00;96662.47;4941556;29;20042;-76
2022/12/27 08:38:29;;;;;;;7.60;2.30;;;;;;;0.10;100.00;96656.63;4955498;28;20039;-76
2022/12/27 08:40:55;;;;;;;7.82;2.40;;;;;;;0.17;100.00;96662.69;4954321;28;20070;-76
2022/12/27 08:43:21;;;;;;;6.00;2.45;;;;;;;0.20;100.00;96660.72;4948728;28;20043;-76
2022/12/27 08:45:46;;;;;;;6.47;2.00;;;;;;;0.41;100.00;96663.44;4953479;28;20070;-76
2022/12/27 08:48:12;;;;;;;4.38;2.15;;;;;;;0.52;100.00;96660.44;4952240;28;20074;-76
2022/12/27 08:50:37;;;;;;;5.25;2.10;;;;;;;0.64;100.00;96667.78;4952575;29;20051;-77
2022/12/27 08:53:04;;;;;;;9.18;2.25;;;;;;;1.09;100.00;96660.78;4954022;29;20047;-75
2022/12/27 08:55:31;;;;;;;3.47;1.83;;;;;;;1.21;100.00;96664.53;4955953;28;20047;-75
2022/12/27 08:58:01;;;;;;;5.90;1.75;;;;;;;1.43;100.00;96659.38;4947786;28;20094;-75
2022/12/27 09:00:28;;;;;;;2.58;1.60;;;;;;;1.46;100.00;96656.41;4955889;28;20047;-75
2022/12/27 09:02:53;;;;;;;4.80;1.60;;;;;;;1.70;100.00;96670.84;4953871;28;20039;-75
2022/12/27 09:05:20;;;;;;;5.93;1.77;;;;;;;1.86;100.00;96667.19;4946141;28;20053;-75
2022/12/27 09:07:46;;;;;;;3.78;1.60;;;;;;;2.11;100.00;96674.59;4950861;29;20035;-75
2022/12/27 09:10:13;;;;;;;3.75;1.70;;;;;;;2.20;100.00;96675.31;4955343;28;20039;-75
2022/12/27 09:12:38;;;;;;;11.27;1.90;;;;;;;2.28;100.00;96675.16;4950136;28;20450;-75
2022/12/27 09:15:04;;;;;;;2.72;1.70;;;;;;;2.51;100.00;96680.13;4955888;28;20126;-75
2022/12/27 09:17:30;;;;;;;3.97;1.55;;;;;;;2.58;100.00;96674.97;4953043;28;20054;-75
2022/12/27 09:19:56;;;;;;;2.70;1.20;;;;;;;2.83;100.00;96690.94;4951720;28;20039;-75
2022/12/27 09:22:22;;;;;;;4.78;2.08;;;;;;;2.94;100.00;96685.22;4953339;28;20580;-75
2022/12/27 09:24:47;;;;;;;4.28;1.55;;;;;;;3.01;100.00;96692.25;4954491;28;20494;-75
2022/12/27 09:27:13;;;;;;;3.30;1.63;;;;;;;3.08;100.00;96685.28;4951373;28;20050;-76
2022/12/27 09:29:38;;;;;;;7.25;1.50;;;;;;;3.22;100.00;96694.75;4955276;28;20054;-76
2022/12/27 09:32:04;;;;;;;3.20;1.50;;;;;;;3.33;100.00;96682.97;4952799;28;20059;-76
2022/12/27 09:34:29;;;;;;;5.15;1.75;;;;;;;3.38;100.00;96690.22;4953495;28;20497;-75
2022/12/27 09:36:55;;;;;;;2.53;1.40;;;;;;;3.54;100.00;96689.88;4948857;28;20044;-75
2022/12/27 09:39:21;;;;;;;2.60;1.60;;;;;;;3.66;100.00;96697.13;4956892;28;20043;-76
2022/12/27 09:42:01;;;;;;;1.88;1.30;;;;;;;3.90;100.00;96687.97;4955312;28;20051;-76
2022/12/27 09:44:50;;;;;;;4.20;1.50;;;;;;;4.65;100.00;96680.75;4951962;29;20039;-75
2022/12/27 09:47:22;;;;;;;1.42;1.05;;;;;;;5.57;100.00;96682.50;4940429;29;20082;-75
2022/12/27 09:49:51;;;;;;;1.42;1.10;;;;;;;6.09;100.00;96684.25;4950657;28;20500;-75
2022/12/27 09:52:25;;;;;;;3.78;1.45;;;;;;;7.05;100.00;96677.81;4953397;28;20047;-75
2022/12/27 09:55:09;;;;;;;2.33;1.17;;;;;;;7.25;100.00;96677.56;4946839;29;20043;-75
2022/12/27 09:57:39;;;;;;;3.75;1.35;;;;;;;7.73;100.00;96678.63;4954262;28;20097;-75
2022/12/27 10:00:14;;;;;;;3.58;1.33;;;;;;;7.67;100.00;96663.78;4956108;28;20051;-76
2022/12/27 10:02:39;;;;;;;;;;;;;;;8.14;100.00;96676.22;4955751;28;20536;-76
2022/12/27 10:05:22;;;;;;;5.82;2.45;;;;;;;8.17;93.67;96677.59;4953023;29;19922;-76
2022/12/27 10:08:13;;;;;;;2.88;1.20;;;;;;;8.49;94.55;96665.81;4945309;28;20410;-76
2022/12/27 10:10:51;;;;;;;3.70;1.50;;;;;;;9.01;91.61;96673.00;4940023;29;20035;-76
2022/12/27 10:13:52;;;;;;;1.92;1.10;;;;;;;9.60;80.79;96660.75;4950002;29;20054;-77
2022/12/27 10:16:36;;;;;;;3.17;1.25;;;;;;;8.73;86.84;96671.06;4943945;28;20056;-76
2022/12/27 10:19:10;;;;;;;1.63;1.07;;;;;;;8.39;86.87;96670.81;4938924;28;20039;-75
2022/12/27 10:21:42;;;;;;;;;;;;;;;8.47;79.40;96667.06;4947535;29;20845;-75
2022/12/27 10:24:19;;;;;;;2.15;1.02;;;;;;;8.34;77.55;96673.28;4957237;29;19969;-75
2022/12/27 10:26:45;;;;;;;4.05;1.40;;;;;;;8.64;84.67;96667.19;4955353;29;20070;-76
2022/12/27 10:29:22;;;;;;;3.67;1.33;;;;;;;8.88;100.00;96654.88;4957255;28;20039;-75
2022/12/27 10:31:48;;;;;;;2.03;1.05;;;;;;;8.52;82.72;96664.56;4957548;28;20505;-76
2022/12/27 10:34:16;;;;;;;3.22;1.02;;;;;;;9.17;82.03;96668.84;4958137;28;20054;-76
2022/12/27 10:36:44;;;;;;;2.38;1.45;;;;;;;9.91;71.51;96653.41;4960649;28;20043;-75
2022/12/27 10:39:17;;;;;;;3.33;1.10;;;;;;;11.02;70.55;96657.22;4974387;28;20035;-76
2022/12/27 10:41:58;;;;;;;2.55;1.02;;;;;;;11.16;61.48;96650.56;4978385;28;20039;-75
2022/12/27 10:44:24;;;;;;;3.80;1.40;;;;;;;7.56;81.08;96643.56;4979749;28;20031;-75
2022/12/27 10:46:55;;;;;;;2.65;1.17;;;;;;;6.61;88.17;96656.09;4969421;28;20027;-75
2022/12/27 10:49:25;;;;;;;1.58;0.88;;;;;;;6.51;100.00;96653.19;4974751;28;20027;-76
2022/12/27 10:51:54;;;;;;;1.23;0.90;;;;;;;6.21;99.23;96656.44;4977821;28;20090;-75
2022/12/27 10:54:21;;;;;;;2.35;1.17;;;;;;;7.80;86.61;96645.25;4979310;28;20046;-75
2022/12/27 10:56:47;;;;;;;1.50;1.10;;;;;;;9.14;84.28;96656.19;4977013;28;20027;-75
2022/12/27 10:59:16;;;;;;;2.95;1.00;;;;;;;7.37;85.33;96648.84;4978764;28;20117;-75
2022/12/27 11:01:44;;;;;;;3.63;0.98;;;;;;;7.44;91.88;96644.31;4980369;28;20035;-75
2022/12/27 11:04:14;;;;;;;1.27;0.82;;;;;;;8.63;78.28;96634.09;4972372;28;20043;-76
2022/12/27 11:06:41;;;;;;;2.30;1.00;;;;;;;9.53;71.62;96627.50;4951716;28;20055;-76
2022/12/27 11:09:19;;;;;;;1.95;1.10;;;;;;;9.30;87.73;96627.59;4954042;28;20118;-76
2022/12/27 11:11:55;;;;;;;1.73;0.85;;;;;;;10.64;70.12;96629.84;4955072;29;20031;-75
2022/12/27 11:14:53;;;;;;;4.63;1.10;;;;;;;11.42;62.94;96624.50;4948349;28;20059;-76
2022/12/27 11:17:23;;;;;;;5.05;1.15;;;;;;;11.19;62.61;96621.09;4941508;28;20050;-76
2022/12/27 11:19:49;;;;;;;3.25;1.25;;;;;;;11.59;60.37;96629.69;4948834;28;20485;-76
2022/12/27 11:22:15;;;;;;;1.50;0.93;;;;;;;11.50;66.42;96626.69;4952045;28;20058;-76
2022/12/27 11:24:50;;;;;;;2.15;1.10;;;;;;;11.11;59.27;96624.16;4953183;28;20490;-76
2022/12/27 11:27:24;;;;;;;1.73;0.98;;;;;;;9.85;67.72;96618.34;4944344;28;20102;-76
2022/12/27 11:29:52;;;;;;;2.10;1.10;;;;;;;11.64;67.81;96610.47;4947010;29;20066;-76
2022/12/27 11:32:22;;;;;;;1.85;1.05;;;;;;;12.68;59.18;96612.94;4935239;29;20047;-76
2022/12/27 11:34:50;;;;;;;1.98;1.13;;;;;;;9.23;66.08;96611.97;4952399;28;20035;-76
2022/12/27 11:37:19;;;;;;;3.53;1.20;;;;;;;8.72;68.01;96617.00;4937937;28;20039;-76
2022/12/27 11:39:49;;;;;;;4.28;1.50;;;;;;;9.64;71.36;96596.16;4952243;28;20045;-76
2022/12/27 11:42:25;;;;;;;2.33;1.23;;;;;;;9.95;67.30;96612.47;4952782;28;20509;-76
2022/12/27 11:45:15;;;;;;;4.63;1.55;;;;;;;9.88;72.92;96602.91;4943219;29;20465;-76
2022/12/27 11:48:02;;;;;;;3.80;1.60;;;;;;;10.34;76.22;96604.69;4938084;29;20043;-76
2022/12/27 11:51:00;;;;;;;4.45;1.40;;;;;;;11.88;61.55;96593.34;4945950;29;20046;-76
2022/12/27 11:53:29;;;;;;;3.30;1.10;;;;;;;9.53;69.15;96606.50;4952044;28;20039;-76
2022/12/27 11:56:00;;;;;;;4.70;1.38;;;;;;;7.92;81.12;96607.78;4950137;29;20543;-76
2022/12/27 11:58:54;;;;;;;5.95;1.50;;;;;;;6.89;84.35;96605.09;4950770;28;20046;-76
2022/12/27 12:01:57;;;;;;;3.58;1.70;;;;;;;6.67;100.00;96608.16;4951255;28;20051;-76
2022/12/27 12:05:01;;;;;;;3.10;1.50;;;;;;;6.62;100.00;96610.59;4948558;29;20047;-76
2022/12/27 12:07:44;;;;;;;4.03;1.70;;;;;;;6.74;100.00;96603.66;4951114;29;20438;-76
2022/12/27 12:10:27;;;;;;;5.75;1.77;;;;;;;6.39;100.00;96591.13;4951303;28;20071;-76
2022/12/27 12:13:12;;;;;;;5.30;1.73;;;;;;;6.35;100.00;96600.41;4949585;28;20472;-76
2022/12/27 12:15:59;;;;;;;;;;;;;;;6.58;100.00;96604.22;4937442;28;20073;-76
2022/12/27 12:18:37;;;;;;;5.07;1.80;;;;;;;6.37;100.00;96597.59;4947299;28;20401;-76
2022/12/27 12:21:29;;;;;;;6.45;2.40;;;;;;;6.45;100.00;96599.09;4937861;29;20047;-76
2022/12/27 12:24:06;;;;;;;11.85;4.00;;;;;;;6.11;100.00;96601.22;4953153;28;20074;-76
2022/12/27 12:27:10;;;;;;;9.45;3.20;;;;;;;5.89;100.00;96596.34;4952464;28;20086;-76
2022/12/27 12:29:49;;;;;;;5.07;1.35;;;;;;;6.09;100.00;96605.84;4950294;29;20130;-76
2022/12/27 12:32:33;;;;;;;5.72;1.40;;;;;;;5.57;100.00;96593.72;4949102;29;20047;-76
2022/12/27 12:35:11;;;;;;;4.13;1.70;;;;;;;6.11;100.00;96582.94;4932611;29;20091;-76
2022/12/27 12:37:50;;;;;;;7.93;2.05;;;;;;;6.33;100.00;96586.75;4949462;28;20548;-76
2022/12/27 12:40:45;;;;;;;4.38;1.58;;;;;;;6.50;100.00;96586.19;4952204;28;20039;-76
2022/12/27 12:43:17;;;;;;;;;;;;;;;6.56;98.29;96590.56;4950112;29;20043;-76
2022/12/27 12:45:55;;;;;;;3.92;1.75;;;;;;;6.75;99.81;96586.94;4941616;28;20455;-77
2022/12/27 12:48:30;;;;;;;5.95;1.80;;;;;;;6.71;95.43;96577.09;4943955;28;20047;-77
2022/12/27 12:50:58;;;;;;;5.43;1.95;;;;;;;6.66;100.00;96585.59;4938584;29;20072;-77
2022/12/27 12:53:42;;;;;;;3.53;1.48;;;;;;;6.69;100.00;96579.94;4955930;28;20051;-76
2022/12/27 12:56:42;;;;;;;9.38;2.40;;;;;;;6.28;100.00;96583.97;4971748;28;20047;-77
2022/12/27 12:59:48;;;;;;;3.78;1.50;;;;;;;6.58;100.00;96578.06;4956701;28;20039;-76
2022/12/27 13:02:32;;;;;;;;;;;;;;;6.58;100.00;96583.31;4917542;29;20063;-76
2022/12/27 13:05:26;;;;;;;5.38;2.00;;;;;;;6.17;100.00;96577.63;4934491;29;19938;-77
2022/12/27 13:08:13;;;;;;;4.60;2.03;;;;;;;6.26;100.00;96579.97;4947658;28;20070;-76
2022/12/27 13:10:45;;;;;;;6.55;2.03;;;;;;;6.15;100.00;96568.41;4953967;28;20493;-76
2022/12/27 13:13:25;;;;;;;4.63;1.88;;;;;;;5.94;100.00;96567.75;4953257;28;20047;-77
2022/12/27 13:16:02;;;;;;;10.23;3.05;;;;;;;6.22;100.00;96563.91;4949312;28;20039;-77
2022/12/27 13:18:47;;;;;;;5.53;2.03;;;;;;;6.02;100.00;96559.69;4946018;28;20044;-76
2022/12/27 13:21:24;;;;;;;5.28;1.98;;;;;;;5.98;100.00;96553.28;4954808;28;20047;-77
2022/12/27 13:24:01;;;;;;;4.50;2.30;;;;;;;6.03;100.00;96556.06;4958987;28;20042;-77
2022/12/27 13:26:47;;;;;;;6.50;2.25;;;;;;;6.04;100.00;96562.88;4952943;29;20424;-76
2022/12/27 13:29:37;;;;;;;9.43;2.10;;;;;;;5.79;100.00;96564.66;4943352;28;20053;-77
2022/12/27 13:32:22;;;;;;;8.15;2.13;;;;;;;5.86;100.00;96571.44;4935567;28;20664;-77
2022/12/27 13:35:05;;;;;;;6.63;2.63;;;;;;;5.72;100.00;96575.94;4956672;28;20035;-77
2022/12/27 13:37:39;;;;;;;5.40;2.17;;;;;;;5.63;100.00;96579.84;4953119;28;20038;-76
2022/12/27 13:40:13;;;;;;;10.73;2.60;;;;;;;5.68;100.00;96568.75;4954185;28;20066;-76
2022/12/27 13:43:12;;;;;;;8.68;2.17;;;;;;;5.67;100.00;96562.72;4941275;28;20054;-76